createdAt,value
2022-11-14T00:00:53.181Z,61.25
2022-11-14T00:01:52.946Z,64.02
2022-11-14T00:02:53.103Z,67.02
2022-11-14T00:03:52.943Z,60.37
2022-11-14T00:04:52.942Z,60.12
2022-11-14T00:05:52.937Z,59.78
2022-11-14T00:06:52.962Z,59.82
2022-11-14T00:07:52.921Z,59.30
2022-11-14T00:08:52.914Z,59.67
2022-11-14T00:09:52.888Z,59.27
2022-11-14T00:10:52.942Z,58.98
2022-11-14T00:11:52.928Z,65.75
2022-11-14T00:12:52.882Z,59.59
2022-11-14T00:13:52.870Z,59.45
2022-11-14T00:14:52.870Z,59.52
2022-11-14T00:15:52.879Z,59.64
2022-11-14T00:16:52.915Z,59.97
2022-11-14T00:17:52.859Z,60.36
2022-11-14T00:18:52.937Z,69.88
2022-11-14T00:19:52.850Z,60.96
2022-11-14T00:20:52.856Z,62.12
2022-11-14T00:21:52.855Z,62.01
2022-11-14T00:22:53.139Z,69.56
2022-11-14T00:23:52.830Z,65.24
2022-11-14T00:24:52.818Z,60.14
2022-11-14T00:25:52.792Z,59.88
2022-11-14T00:26:52.800Z,60.15
2022-11-14T00:27:52.938Z,60.00
2022-11-14T00:28:52.799Z,59.91
2022-11-14T00:29:52.807Z,68.64
2022-11-14T00:30:52.799Z,66.64
2022-11-14T00:31:52.832Z,69.67
2022-11-14T00:32:52.780Z,60.69
2022-11-14T00:33:52.889Z,60.53
2022-11-14T00:34:52.865Z,60.88
2022-11-14T00:35:52.778Z,60.36
2022-11-14T00:36:52.761Z,60.64
2022-11-14T00:37:52.755Z,69.05
2022-11-14T00:38:52.775Z,60.69
2022-11-14T00:39:52.724Z,60.41
2022-11-14T00:40:52.747Z,60.84
2022-11-14T00:41:52.750Z,61.22
2022-11-14T00:42:52.729Z,61.17
2022-11-14T00:43:52.714Z,60.75
2022-11-14T00:44:52.813Z,60.91
2022-11-14T00:45:52.699Z,60.84
2022-11-14T00:46:52.703Z,60.64
2022-11-14T00:47:52.703Z,64.00
2022-11-14T00:48:52.697Z,62.44
2022-11-14T00:49:52.784Z,65.70
2022-11-14T00:50:52.678Z,61.37
2022-11-14T00:51:52.677Z,61.28
2022-11-14T00:52:52.675Z,61.05
2022-11-14T00:53:52.648Z,61.94
2022-11-14T00:54:52.658Z,65.34
2022-11-14T00:55:52.672Z,61.08
2022-11-14T00:56:52.647Z,61.28
2022-11-14T00:57:52.639Z,60.95
2022-11-14T00:58:52.655Z,60.80
2022-11-14T00:59:52.674Z,60.77
2022-11-14T01:00:52.826Z,65.23
2022-11-14T01:01:57.574Z,60.55
2022-11-14T01:02:53.613Z,60.57
2022-11-14T01:03:52.616Z,69.10
2022-11-14T01:04:52.618Z,60.95
2022-11-14T01:05:52.601Z,59.93
2022-11-14T01:06:52.716Z,59.55
2022-11-14T01:07:52.602Z,67.15
2022-11-14T01:08:52.654Z,60.69
2022-11-14T01:09:52.578Z,59.17
2022-11-14T01:10:52.587Z,60.70
2022-11-14T01:11:52.686Z,59.87
2022-11-14T01:12:52.553Z,61.23
2022-11-14T01:13:52.571Z,60.39
2022-11-14T01:14:52.544Z,61.01
2022-11-14T01:15:52.550Z,60.93
2022-11-14T01:16:52.547Z,60.65
2022-11-14T01:17:52.581Z,60.56
2022-11-14T01:18:52.591Z,60.50
2022-11-14T01:19:52.542Z,60.00
2022-11-14T01:20:52.601Z,60.68
2022-11-14T01:21:52.530Z,61.94
2022-11-14T01:22:52.706Z,69.00
2022-11-14T01:23:52.520Z,60.53
2022-11-14T01:24:52.513Z,60.50
2022-11-14T01:25:52.484Z,61.74
2022-11-14T01:26:52.482Z,65.52
2022-11-14T01:27:52.487Z,61.00
2022-11-14T01:28:52.521Z,60.91
2022-11-14T01:29:52.503Z,60.75
2022-11-14T01:30:52.472Z,60.99
2022-11-14T01:31:53.462Z,61.21
2022-11-14T01:32:52.472Z,60.67
2022-11-14T01:33:52.505Z,60.94
2022-11-14T01:34:52.463Z,60.43
2022-11-14T01:35:52.492Z,59.96
2022-11-14T01:36:52.480Z,60.23
2022-11-14T01:37:52.474Z,60.83
2022-11-14T01:38:52.524Z,60.83
2022-11-14T01:39:52.442Z,61.12
2022-11-14T01:40:52.432Z,60.83
2022-11-14T01:41:52.420Z,60.88
2022-11-14T01:42:52.419Z,60.79
2022-11-14T01:43:52.421Z,60.99
2022-11-14T01:44:52.583Z,66.20
2022-11-14T01:45:52.401Z,61.01
2022-11-14T01:46:52.412Z,66.18
2022-11-14T01:47:52.412Z,61.02
2022-11-14T01:48:52.408Z,67.66
2022-11-14T01:49:52.379Z,60.79
2022-11-14T01:50:52.504Z,61.02
2022-11-14T01:51:52.364Z,69.62
2022-11-14T01:52:52.389Z,60.68
2022-11-14T01:53:52.355Z,60.52
2022-11-14T01:54:52.451Z,61.08
2022-11-14T01:55:52.472Z,66.35
2022-11-14T01:56:52.370Z,61.42
2022-11-14T01:57:52.331Z,61.14
2022-11-14T01:58:52.324Z,61.20
2022-11-14T01:59:52.334Z,61.28
2022-11-14T02:00:52.323Z,60.98
2022-11-14T02:01:52.399Z,61.18
2022-11-14T02:02:52.352Z,60.94
2022-11-14T02:03:52.323Z,61.40
2022-11-14T02:04:52.305Z,61.24
2022-11-14T02:05:52.279Z,61.44
2022-11-14T02:06:52.468Z,61.40
2022-11-14T02:07:52.301Z,61.36
2022-11-14T02:08:52.289Z,61.26
2022-11-14T02:09:52.274Z,61.37
2022-11-14T02:10:52.367Z,64.49
2022-11-14T02:11:52.325Z,61.11
2022-11-14T02:12:52.318Z,61.61
2022-11-14T02:13:52.253Z,68.20
2022-11-14T02:14:52.256Z,68.58
2022-11-14T02:15:52.240Z,61.19
2022-11-14T02:17:22.260Z,61.30
2022-11-14T02:17:54.259Z,61.53
2022-11-14T02:18:52.247Z,61.49
2022-11-14T02:19:52.219Z,61.53
2022-11-14T02:20:52.223Z,61.37
2022-11-14T02:21:52.218Z,61.55
2022-11-14T02:22:52.242Z,64.88
2022-11-14T02:23:52.249Z,61.55
2022-11-14T02:24:52.213Z,61.55
2022-11-14T02:25:52.186Z,69.41
2022-11-14T02:26:52.289Z,62.63
2022-11-14T02:27:52.212Z,64.73
2022-11-14T02:28:52.211Z,60.99
2022-11-14T02:29:52.179Z,65.46
2022-11-14T02:30:52.169Z,61.24
2022-11-14T02:31:52.171Z,61.34
2022-11-14T02:33:54.160Z,62.81
2022-11-14T02:34:52.176Z,65.23
2022-11-14T02:35:52.159Z,65.50
2022-11-14T02:36:52.145Z,61.33
2022-11-14T02:37:52.149Z,61.19
2022-11-14T02:38:52.180Z,61.59
2022-11-14T02:39:52.127Z,61.43
2022-11-14T02:40:52.124Z,60.84
2022-11-14T02:41:52.135Z,64.54
2022-11-14T02:42:52.237Z,61.20
2022-11-14T02:43:52.156Z,63.58
2022-11-14T02:44:52.099Z,69.76
2022-11-14T02:45:52.091Z,61.61
2022-11-14T02:46:52.162Z,65.00
2022-11-14T02:47:52.114Z,61.43
2022-11-14T02:48:52.075Z,61.15
2022-11-14T02:49:52.115Z,64.46
2022-11-14T02:50:52.078Z,68.04
2022-11-14T02:51:52.076Z,65.13
2022-11-14T02:52:52.056Z,61.53
2022-11-14T02:53:52.088Z,61.54
2022-11-14T02:54:54.615Z,61.53
2022-11-14T02:55:53.037Z,65.74
2022-11-14T02:56:52.044Z,61.39
2022-11-14T02:57:52.027Z,61.57
2022-11-14T02:58:52.120Z,61.27
2022-11-14T02:59:52.018Z,63.32
2022-11-14T03:01:18.712Z,63.35
2022-11-14T03:01:54.050Z,66.59
2022-11-14T03:02:52.012Z,61.48
2022-11-14T03:03:52.011Z,65.25
2022-11-14T03:04:52.001Z,64.21
2022-11-14T03:05:52.024Z,65.89
2022-11-14T03:06:52.064Z,69.29
2022-11-14T03:07:51.991Z,65.37
2022-11-14T03:08:51.992Z,67.39
2022-11-14T03:09:51.989Z,65.92
2022-11-14T03:10:51.968Z,61.87
2022-11-14T03:11:52.103Z,73.23
2022-11-14T03:12:51.991Z,65.11
2022-11-14T03:13:51.972Z,61.53
2022-11-14T03:14:52.044Z,61.34
2022-11-14T03:15:51.951Z,67.82
2022-11-14T03:16:51.961Z,63.30
2022-11-14T03:17:51.927Z,67.59
2022-11-14T03:18:52.935Z,66.30
2022-11-14T03:19:51.934Z,65.18
2022-11-14T03:20:51.923Z,67.46
2022-11-14T03:21:51.929Z,69.99
2022-11-14T03:22:51.938Z,64.74
2022-11-14T03:23:51.915Z,61.40
2022-11-14T03:24:51.897Z,69.93
2022-11-14T03:25:51.877Z,66.99
2022-11-14T03:26:51.882Z,62.52
2022-11-14T03:27:51.903Z,66.67
2022-11-14T03:28:51.883Z,69.99
2022-11-14T03:29:51.868Z,64.81
2022-11-14T03:30:51.968Z,69.45
2022-11-14T03:31:51.864Z,62.88
2022-11-14T03:32:51.853Z,70.51
2022-11-14T03:33:51.883Z,61.48
2022-11-14T03:34:51.829Z,64.53
2022-11-14T03:35:51.843Z,73.45
2022-11-14T03:36:51.823Z,65.24
2022-11-14T03:37:56.183Z,62.27
2022-11-14T03:38:52.834Z,65.65
2022-11-14T03:39:51.820Z,65.99
2022-11-14T03:40:51.874Z,63.89
2022-11-14T03:41:51.825Z,71.80
2022-11-14T03:42:51.815Z,71.17
2022-11-14T03:43:51.813Z,69.47
2022-11-14T03:44:51.833Z,66.16
2022-11-14T03:45:51.791Z,61.52
2022-11-14T03:46:51.869Z,68.30
2022-11-14T03:47:51.789Z,70.71
2022-11-14T03:48:51.780Z,61.52
2022-11-14T03:49:51.792Z,64.33
2022-11-14T03:50:51.768Z,72.48
2022-11-14T03:51:51.758Z,68.47
2022-11-14T03:52:51.745Z,65.90
2022-11-14T03:53:51.776Z,71.73
2022-11-14T03:54:51.875Z,74.64
2022-11-14T03:55:51.735Z,64.68
2022-11-14T03:56:51.722Z,72.20
2022-11-14T03:57:51.741Z,73.62
2022-11-14T03:58:51.725Z,66.47
2022-11-14T03:59:51.740Z,67.49
2022-11-14T04:00:51.737Z,79.10
2022-11-14T04:01:51.705Z,69.73
2022-11-14T04:02:51.789Z,65.36
2022-11-14T04:03:51.711Z,72.78
2022-11-14T04:04:51.697Z,68.73
2022-11-14T04:05:51.689Z,68.40
2022-11-14T04:06:51.705Z,76.35
2022-11-14T04:07:51.672Z,69.14
2022-11-14T04:08:51.679Z,68.15
2022-11-14T04:09:51.692Z,75.50
2022-11-14T04:10:51.673Z,71.40
2022-11-14T04:11:51.651Z,80.69
2022-11-14T04:12:51.654Z,74.18
2022-11-14T04:13:51.673Z,73.00
2022-11-14T04:14:51.667Z,65.12
2022-11-14T04:15:51.637Z,83.53
2022-11-14T04:16:51.616Z,73.07
2022-11-14T04:17:51.636Z,71.48
2022-11-14T04:18:51.708Z,75.76
2022-11-14T04:19:51.643Z,66.75
2022-11-14T04:20:51.612Z,67.28
2022-11-14T04:21:51.598Z,77.58
2022-11-14T04:22:51.595Z,65.79
2022-11-14T04:23:51.619Z,79.34
2022-11-14T04:24:51.601Z,76.94
2022-11-14T04:25:51.586Z,73.28
2022-11-14T04:26:51.587Z,72.71
2022-11-14T04:27:51.581Z,74.05
2022-11-14T04:28:51.575Z,69.06
2022-11-14T04:29:51.566Z,75.47
2022-11-14T04:30:51.576Z,78.27
2022-11-14T04:31:51.549Z,68.84
2022-11-14T04:32:51.534Z,77.69
2022-11-14T04:33:51.562Z,68.05
2022-11-14T04:34:51.646Z,76.71
2022-11-14T04:35:51.528Z,69.45
2022-11-14T04:36:51.515Z,69.93
2022-11-14T04:37:51.532Z,73.14
2022-11-14T04:38:51.534Z,71.06
2022-11-14T04:39:51.526Z,72.62
2022-11-14T04:40:51.501Z,66.52
2022-11-14T04:41:51.494Z,82.62
2022-11-14T04:42:51.509Z,74.71
2022-11-14T04:43:51.509Z,79.98
2022-11-14T04:44:51.544Z,64.28
2022-11-14T04:45:51.492Z,79.78
2022-11-14T04:46:51.475Z,67.44
2022-11-14T04:47:51.481Z,67.21
2022-11-14T04:48:51.523Z,75.79
2022-11-14T04:49:51.457Z,68.36
2022-11-14T04:50:51.548Z,77.33
2022-11-14T04:51:52.303Z,74.66
2022-11-14T04:52:51.452Z,78.46
2022-11-14T04:53:51.454Z,68.90
2022-11-14T04:54:51.476Z,64.67
2022-11-14T04:55:51.445Z,73.66
2022-11-14T04:56:51.420Z,74.11
2022-11-14T04:57:51.438Z,73.04
2022-11-14T04:58:51.421Z,73.64
2022-11-14T04:59:51.758Z,74.53
2022-11-14T05:00:51.392Z,68.13
2022-11-14T05:01:51.486Z,82.48
2022-11-14T05:02:51.386Z,73.11
2022-11-14T05:03:51.406Z,72.79
2022-11-14T05:04:52.501Z,83.56
2022-11-14T05:05:51.376Z,80.94
2022-11-14T05:06:51.473Z,76.35
2022-11-14T05:07:51.424Z,76.49
2022-11-14T05:08:51.343Z,74.05
2022-11-14T05:09:51.347Z,78.76
2022-11-14T05:10:51.460Z,77.08
2022-11-14T05:11:51.345Z,77.41
2022-11-14T05:12:51.346Z,66.32
2022-11-14T05:13:51.340Z,66.49
2022-11-14T05:14:51.359Z,76.74
2022-11-14T05:15:51.439Z,82.88
2022-11-14T05:16:51.333Z,82.60
2022-11-14T05:17:51.321Z,77.37
2022-11-14T05:18:51.305Z,80.78
2022-11-14T05:19:51.327Z,73.73
2022-11-14T05:20:51.292Z,81.31
2022-11-14T05:21:51.350Z,82.51
2022-11-14T05:22:51.303Z,80.15
2022-11-14T05:23:51.282Z,80.34
2022-11-14T05:24:51.284Z,83.35
2022-11-14T05:25:54.787Z,78.92
2022-11-14T05:26:53.392Z,78.28
2022-11-14T05:27:51.311Z,74.50
2022-11-14T05:28:51.256Z,75.96
2022-11-14T05:29:51.249Z,74.14
2022-11-14T05:30:51.248Z,81.21
2022-11-14T05:31:51.230Z,79.82
2022-11-14T05:32:51.267Z,79.55
2022-11-14T05:33:51.254Z,76.50
2022-11-14T05:34:51.215Z,74.60
2022-11-14T05:35:51.238Z,79.17
2022-11-14T05:36:51.258Z,84.15
2022-11-14T05:37:52.968Z,80.27
2022-11-14T05:38:51.201Z,82.96
2022-11-14T05:39:51.190Z,74.57
2022-11-14T05:40:51.180Z,82.33
2022-11-14T05:41:51.188Z,81.22
2022-11-14T05:42:51.197Z,78.79
2022-11-14T05:43:51.213Z,75.35
2022-11-14T05:44:51.162Z,77.21
2022-11-14T05:45:52.156Z,75.63
2022-11-14T05:46:51.183Z,84.84
2022-11-14T05:47:51.159Z,83.02
2022-11-14T05:48:51.302Z,86.09
2022-11-14T05:49:51.150Z,78.67
2022-11-14T05:50:51.133Z,79.35
2022-11-14T05:51:51.142Z,74.72
2022-11-14T05:52:51.135Z,80.84
2022-11-14T05:53:51.112Z,81.51
2022-11-14T05:54:51.141Z,75.61
2022-11-14T05:55:51.110Z,82.19
2022-11-14T05:56:51.103Z,81.41
2022-11-14T05:57:51.102Z,77.83
2022-11-14T05:58:51.090Z,78.91
2022-11-14T05:59:51.097Z,73.70
2022-11-14T06:00:54.303Z,76.98
2022-11-14T06:01:51.107Z,81.14
2022-11-14T06:02:51.087Z,80.57
2022-11-14T06:03:51.077Z,81.47
2022-11-14T06:04:51.072Z,78.45
2022-11-14T06:05:51.271Z,81.05
2022-11-14T06:06:51.130Z,80.89
2022-11-14T06:07:51.055Z,84.20
2022-11-14T06:08:51.045Z,75.72
2022-11-14T06:09:51.056Z,82.06
2022-11-14T06:10:51.062Z,79.11
2022-11-14T06:11:51.019Z,85.80
2022-11-14T06:12:51.034Z,85.48
2022-11-14T06:13:51.042Z,76.20
2022-11-14T06:14:51.005Z,82.00
2022-11-14T06:15:51.010Z,77.24
2022-11-14T06:16:51.816Z,85.70
2022-11-14T06:17:50.992Z,77.92
2022-11-14T06:18:51.001Z,79.39
2022-11-14T06:19:50.986Z,80.66
2022-11-14T06:20:50.984Z,78.88
2022-11-14T06:21:51.070Z,83.07
2022-11-14T06:22:50.955Z,82.29
2022-11-14T06:23:51.730Z,82.57
2022-11-14T06:24:50.935Z,82.80
2022-11-14T06:25:50.990Z,83.02
2022-11-14T06:26:50.960Z,79.86
2022-11-14T06:27:50.970Z,83.40
2022-11-14T06:28:50.946Z,80.19
2022-11-14T06:29:50.951Z,80.84
2022-11-14T06:30:50.969Z,78.72
2022-11-14T06:31:50.918Z,84.75
2022-11-14T06:32:51.957Z,84.97
2022-11-14T06:33:50.908Z,83.03
2022-11-14T06:34:50.887Z,76.34
2022-11-14T06:35:50.926Z,84.13
2022-11-14T06:36:50.907Z,83.97
2022-11-14T06:37:50.896Z,79.61
2022-11-14T06:38:50.897Z,80.83
2022-11-14T06:39:50.873Z,81.66
2022-11-14T06:40:51.865Z,83.60
2022-11-14T06:41:50.865Z,85.86
2022-11-14T06:42:50.879Z,82.96
2022-11-14T06:43:50.872Z,84.02
2022-11-14T06:44:50.850Z,86.03
2022-11-14T06:45:50.890Z,68.81
2022-11-14T06:46:50.839Z,87.52
2022-11-14T06:47:50.851Z,83.70
2022-11-14T06:48:50.830Z,83.00
2022-11-14T06:49:50.812Z,86.10
2022-11-14T06:50:50.817Z,76.83
2022-11-14T06:51:50.816Z,84.97
2022-11-14T06:52:51.612Z,84.26
2022-11-14T06:53:50.832Z,83.01
2022-11-14T06:54:50.804Z,83.15
2022-11-14T06:55:51.732Z,86.23
2022-11-14T06:56:50.885Z,85.22
2022-11-14T06:57:50.781Z,82.28
2022-11-14T06:58:50.802Z,77.86
2022-11-14T06:59:50.777Z,81.10
2022-11-14T07:00:50.753Z,83.12
2022-11-14T07:01:50.768Z,81.62
2022-11-14T07:02:50.796Z,78.91
2022-11-14T07:03:51.770Z,81.05
2022-11-14T07:04:50.732Z,82.84
2022-11-14T07:05:50.760Z,82.11
2022-11-14T07:06:50.792Z,81.41
2022-11-14T07:07:50.742Z,83.12
2022-11-14T07:08:50.736Z,81.12
2022-11-14T07:09:50.725Z,75.05
2022-11-14T07:10:50.721Z,80.99
2022-11-14T07:11:50.789Z,83.35
2022-11-14T07:12:50.711Z,78.71
2022-11-14T07:13:50.713Z,84.61
2022-11-14T07:14:50.715Z,82.12
2022-11-14T07:15:50.690Z,74.38
2022-11-14T07:16:50.675Z,85.04
2022-11-14T07:17:50.685Z,81.81
2022-11-14T07:18:50.677Z,80.16
2022-11-14T07:19:50.683Z,77.07
2022-11-14T07:20:51.185Z,78.03
2022-11-14T07:21:50.658Z,78.66
2022-11-14T07:22:50.654Z,81.43
2022-11-14T07:23:50.649Z,78.77
2022-11-14T07:24:50.647Z,74.13
2022-11-14T07:25:50.644Z,83.23
2022-11-14T07:26:51.236Z,81.14
2022-11-14T07:27:50.615Z,74.20
2022-11-14T07:28:53.622Z,80.77
2022-11-14T07:29:51.629Z,81.26
2022-11-14T07:30:50.597Z,83.32
2022-11-14T07:31:50.626Z,77.29
2022-11-14T07:32:50.592Z,82.88
2022-11-14T07:33:50.621Z,74.98
2022-11-14T07:34:50.617Z,77.81
2022-11-14T07:35:50.601Z,78.91
2022-11-14T07:36:50.593Z,82.44
2022-11-14T07:37:50.635Z,77.94
2022-11-14T07:38:50.618Z,81.20
2022-11-14T07:39:50.731Z,83.14
2022-11-14T07:40:52.444Z,84.04
2022-11-14T07:41:50.643Z,81.25
2022-11-14T07:42:50.551Z,82.33
2022-11-14T07:43:50.561Z,78.20
2022-11-14T07:44:50.599Z,80.67
2022-11-14T07:45:50.571Z,81.67
2022-11-14T07:46:50.525Z,83.75
2022-11-14T07:47:50.552Z,76.36
2022-11-14T07:48:50.622Z,81.86
2022-11-14T07:49:51.260Z,83.28
2022-11-14T07:50:50.526Z,78.98
2022-11-14T07:51:50.502Z,76.38
2022-11-14T07:52:50.551Z,80.33
2022-11-14T07:53:50.517Z,81.08
2022-11-14T07:54:50.497Z,77.85
2022-11-14T07:55:50.475Z,72.91
2022-11-14T07:56:50.488Z,75.13
2022-11-14T07:57:50.627Z,74.31
2022-11-14T07:58:50.479Z,77.41
2022-11-14T07:59:50.450Z,79.88
2022-11-14T08:00:50.502Z,77.98
2022-11-14T08:01:50.461Z,80.92
2022-11-14T08:02:50.436Z,80.64
2022-11-14T08:03:50.450Z,76.50
2022-11-14T08:04:50.454Z,80.03
2022-11-14T08:05:50.447Z,77.89
2022-11-14T08:06:50.471Z,77.34
2022-11-14T08:07:50.391Z,78.87
2022-11-14T08:08:50.451Z,76.33
2022-11-14T08:09:50.396Z,76.67
2022-11-14T08:10:50.387Z,78.46
2022-11-14T08:11:50.383Z,74.62
2022-11-14T08:13:10.791Z,77.92
2022-11-14T08:13:53.182Z,73.61
2022-11-14T08:14:50.362Z,82.12
2022-11-14T08:15:50.333Z,78.22
2022-11-14T08:16:50.337Z,76.96
2022-11-14T08:17:50.330Z,76.54
2022-11-14T08:18:50.405Z,81.09
2022-11-14T08:19:50.436Z,80.41
2022-11-14T08:20:50.392Z,79.84
2022-11-14T08:21:50.313Z,73.35
2022-11-14T08:22:50.305Z,79.02
2022-11-14T08:23:50.282Z,77.06
2022-11-14T08:24:50.529Z,80.18
2022-11-14T08:25:50.292Z,78.54
2022-11-14T08:26:50.281Z,79.82
2022-11-14T08:27:50.257Z,75.81
2022-11-14T08:28:50.273Z,79.79
2022-11-14T08:29:50.258Z,74.82
2022-11-14T08:30:50.282Z,76.35
2022-11-14T08:31:50.245Z,80.67
2022-11-14T08:32:50.861Z,74.29
2022-11-14T08:33:50.222Z,73.74
2022-11-14T08:34:50.237Z,75.46
2022-11-14T08:35:50.325Z,77.65
2022-11-14T08:36:50.220Z,79.51
2022-11-14T08:37:50.220Z,78.02
2022-11-14T08:38:51.656Z,75.69
2022-11-14T08:39:51.209Z,79.64
2022-11-14T08:40:50.210Z,73.91
2022-11-14T08:41:50.220Z,78.90
2022-11-14T08:42:50.187Z,76.57
2022-11-14T08:43:50.173Z,82.24
2022-11-14T08:44:52.137Z,73.85
2022-11-14T08:45:51.165Z,81.98
2022-11-14T08:46:50.179Z,76.06
2022-11-14T08:47:50.767Z,79.94
2022-11-14T08:48:50.144Z,75.88
2022-11-14T08:49:50.762Z,72.64
2022-11-14T08:50:50.230Z,75.36
2022-11-14T08:51:50.145Z,70.93
2022-11-14T08:52:50.155Z,82.30
2022-11-14T08:53:50.109Z,76.04
2022-11-14T08:54:50.095Z,76.22
2022-11-14T08:55:50.112Z,75.19
2022-11-14T08:56:50.114Z,72.69
2022-11-14T08:57:50.207Z,76.89
2022-11-14T08:58:50.096Z,79.73
2022-11-14T08:59:50.061Z,79.94
2022-11-14T09:00:50.074Z,73.56
2022-11-14T09:01:51.080Z,74.66
2022-11-14T09:02:50.118Z,76.62
2022-11-14T09:03:52.222Z,75.65
2022-11-14T09:04:50.110Z,74.70
2022-11-14T09:05:50.045Z,75.72
2022-11-14T09:06:50.106Z,73.27
2022-11-14T09:07:50.042Z,70.65
2022-11-14T09:08:50.147Z,79.80
2022-11-14T09:09:50.030Z,75.38
2022-11-14T09:10:50.014Z,68.87
2022-11-14T09:11:50.010Z,74.13
2022-11-14T09:12:50.012Z,74.33
2022-11-14T09:13:50.004Z,78.44
2022-11-14T09:14:50.065Z,72.47
2022-11-14T09:15:50.017Z,74.56
2022-11-14T09:16:50.005Z,68.88
2022-11-14T09:17:49.985Z,68.39
2022-11-14T09:18:49.992Z,81.71
2022-11-14T09:19:49.986Z,73.55
2022-11-14T09:20:49.947Z,70.93
2022-11-14T09:21:49.958Z,72.29
2022-11-14T09:22:49.975Z,75.44
2022-11-14T09:23:49.937Z,79.27
2022-11-14T09:24:49.953Z,69.02
2022-11-14T09:25:50.039Z,73.85
2022-11-14T09:26:55.246Z,76.00
2022-11-14T09:27:50.909Z,66.07
2022-11-14T09:28:49.915Z,77.49
2022-11-14T09:29:49.903Z,72.28
2022-11-14T09:30:49.928Z,77.47
2022-11-14T09:31:49.907Z,71.16
2022-11-14T09:32:49.903Z,68.77
2022-11-14T09:33:49.883Z,74.12
2022-11-14T09:34:49.895Z,76.58
2022-11-14T09:35:49.864Z,70.87
2022-11-14T09:36:49.993Z,77.18
2022-11-14T09:37:49.862Z,77.51
2022-11-14T09:38:49.864Z,72.10
2022-11-14T09:39:49.848Z,80.05
2022-11-14T09:40:50.531Z,73.30
2022-11-14T09:41:49.869Z,71.58
2022-11-14T09:42:49.824Z,74.86
2022-11-14T09:43:49.834Z,72.40
2022-11-14T09:44:49.833Z,75.00
2022-11-14T09:45:49.831Z,81.49
2022-11-14T09:46:49.822Z,75.61
2022-11-14T09:47:50.142Z,76.51
2022-11-14T09:48:49.805Z,74.72
2022-11-14T09:49:49.784Z,67.02
2022-11-14T09:50:49.831Z,75.35
2022-11-14T09:51:49.789Z,72.78
2022-11-14T09:52:49.872Z,72.46
2022-11-14T09:53:49.783Z,74.23
2022-11-14T09:54:49.782Z,73.01
2022-11-14T09:55:49.763Z,74.67
2022-11-14T09:56:49.754Z,76.14
2022-11-14T09:57:49.753Z,71.41
2022-11-14T09:58:49.795Z,74.04
2022-11-14T09:59:49.720Z,77.68
2022-11-14T10:00:49.728Z,70.31
2022-11-14T10:01:49.780Z,74.68
2022-11-14T10:02:49.730Z,74.28
2022-11-14T10:03:49.885Z,75.12
2022-11-14T10:04:49.715Z,75.77
2022-11-14T10:05:49.735Z,79.75
2022-11-14T10:06:49.735Z,74.37
2022-11-14T10:07:49.694Z,77.80
2022-11-14T10:08:49.691Z,64.73
2022-11-14T10:09:49.717Z,77.42
2022-11-14T10:10:49.672Z,81.63
2022-11-14T10:11:49.675Z,68.17
2022-11-14T10:12:49.726Z,85.10
2022-11-14T10:13:49.686Z,79.39
2022-11-14T10:14:49.668Z,80.86
2022-11-14T10:15:49.647Z,71.04
2022-11-14T10:16:49.678Z,78.47
2022-11-14T10:17:49.667Z,72.11
2022-11-14T10:18:49.660Z,64.54
2022-11-14T10:19:49.666Z,72.10
2022-11-14T10:20:49.750Z,76.54
2022-11-14T10:21:49.614Z,71.34
2022-11-14T10:22:49.633Z,75.07
2022-11-14T10:23:49.591Z,68.61
2022-11-14T10:24:49.611Z,76.56
2022-11-14T10:25:49.637Z,79.80
2022-11-14T10:26:49.611Z,73.70
2022-11-14T10:27:55.030Z,72.22
2022-11-14T10:28:49.584Z,80.00
2022-11-14T10:29:49.581Z,76.93
2022-11-14T10:30:49.571Z,77.52
2022-11-14T10:31:49.682Z,71.98
2022-11-14T10:32:49.565Z,68.31
2022-11-14T10:33:49.548Z,77.97
2022-11-14T10:34:49.569Z,75.85
2022-11-14T10:35:49.544Z,75.87
2022-11-14T10:36:49.679Z,74.36
2022-11-14T10:37:49.577Z,72.32
2022-11-14T10:38:49.527Z,77.12
2022-11-14T10:39:49.527Z,69.41
2022-11-14T10:40:49.538Z,73.71
2022-11-14T10:41:57.997Z,74.79
2022-11-14T10:42:51.765Z,76.15
2022-11-14T10:43:49.503Z,68.35
2022-11-14T10:44:49.509Z,73.79
2022-11-14T10:45:49.493Z,75.21
2022-11-14T10:46:50.342Z,75.00
2022-11-14T10:47:49.519Z,75.47
2022-11-14T10:48:49.748Z,73.62
2022-11-14T10:49:49.519Z,71.12
2022-11-14T10:50:49.482Z,74.81
2022-11-14T10:51:49.453Z,77.53
2022-11-14T10:52:49.495Z,74.92
2022-11-14T10:53:49.513Z,72.80
2022-11-14T10:54:55.076Z,79.35
2022-11-14T10:56:03.592Z,79.54
2022-11-14T10:56:51.475Z,66.69
2022-11-14T10:57:49.448Z,73.61
2022-11-14T10:58:50.117Z,73.20
2022-11-14T10:59:50.498Z,74.75
2022-11-14T11:00:49.485Z,73.19
2022-11-14T11:01:49.436Z,72.63
2022-11-14T11:02:49.416Z,73.28
2022-11-14T11:03:49.456Z,72.89
2022-11-14T11:04:49.449Z,72.07
2022-11-14T11:05:49.432Z,77.12
2022-11-14T11:06:49.460Z,74.14
2022-11-14T11:07:49.463Z,76.63
2022-11-14T11:08:49.722Z,68.22
2022-11-14T11:09:49.443Z,77.48
2022-11-14T11:10:49.423Z,77.25
2022-11-14T11:11:49.912Z,77.37
2022-11-14T11:12:49.390Z,73.27
2022-11-14T11:13:49.351Z,76.30
2022-11-14T11:14:49.348Z,79.71
2022-11-14T11:15:49.384Z,70.44
2022-11-14T11:16:49.362Z,74.40
2022-11-14T11:17:49.318Z,74.64
2022-11-14T11:18:50.835Z,74.94
2022-11-14T11:19:50.360Z,81.45
2022-11-14T11:20:49.333Z,78.88
2022-11-14T11:21:49.416Z,70.59
2022-11-14T11:22:49.306Z,75.33
2022-11-14T11:23:49.313Z,81.26
2022-11-14T11:24:49.283Z,79.51
2022-11-14T11:25:49.332Z,74.97
2022-11-14T11:26:49.285Z,80.25
2022-11-14T11:27:49.279Z,70.94
2022-11-14T11:28:49.283Z,80.77
2022-11-14T11:29:49.257Z,78.42
2022-11-14T11:30:54.287Z,76.72
2022-11-14T11:31:51.268Z,78.21
2022-11-14T11:32:49.275Z,72.00
2022-11-14T11:33:49.241Z,78.66
2022-11-14T11:34:49.271Z,77.99
2022-11-14T11:35:49.223Z,80.26
2022-11-14T11:36:49.326Z,74.70
2022-11-14T11:37:49.211Z,78.16
2022-11-14T11:38:49.234Z,77.96
2022-11-14T11:39:49.211Z,78.68
2022-11-14T11:40:49.209Z,74.15
2022-11-14T11:43:36.668Z,84.23
2022-11-14T11:43:56.556Z,75.00
2022-11-14T11:44:51.215Z,78.79
2022-11-14T11:45:49.181Z,76.44
2022-11-14T11:46:49.182Z,74.87
2022-11-14T11:47:49.175Z,75.83
2022-11-14T11:48:49.177Z,76.82
2022-11-14T11:49:53.790Z,80.69
2022-11-14T11:50:51.159Z,73.51
2022-11-14T11:51:49.220Z,74.53
2022-11-14T11:52:49.156Z,73.82
2022-11-14T11:53:49.121Z,76.89
2022-11-14T11:54:49.147Z,76.85
2022-11-14T11:55:49.128Z,77.62
2022-11-14T11:56:49.107Z,75.43
2022-11-14T11:57:49.114Z,72.89
2022-11-14T11:58:49.426Z,74.62
2022-11-14T11:59:49.122Z,75.55
2022-11-14T12:00:49.087Z,75.37
2022-11-14T12:01:49.145Z,75.33
2022-11-14T12:02:50.296Z,75.56
2022-11-14T12:03:49.211Z,77.47
2022-11-14T12:04:49.095Z,79.25
2022-11-14T12:05:49.106Z,76.36
2022-11-14T12:06:49.127Z,67.61
2022-11-14T12:07:49.088Z,76.21
2022-11-14T12:08:49.063Z,80.85
2022-11-14T12:10:09.816Z,71.53
2022-11-14T12:10:50.829Z,70.17
2022-11-14T12:11:49.045Z,79.94
2022-11-14T12:12:49.019Z,75.70
2022-11-14T12:13:49.055Z,81.20
2022-11-14T12:14:49.063Z,78.91
2022-11-14T12:15:49.083Z,83.21
2022-11-14T12:16:49.036Z,82.55
2022-11-14T12:17:49.019Z,80.69
2022-11-14T12:18:49.004Z,84.02
2022-11-14T12:19:49.031Z,78.29
2022-11-14T12:20:49.049Z,81.37
2022-11-14T12:21:51.051Z,80.60
2022-11-14T12:22:48.994Z,77.08
2022-11-14T12:23:48.984Z,79.30
2022-11-14T12:24:48.999Z,74.74
2022-11-14T12:25:48.977Z,78.18
2022-11-14T12:26:48.992Z,73.49
2022-11-14T12:27:49.029Z,79.92
2022-11-14T12:28:48.957Z,74.79
2022-11-14T12:29:48.954Z,75.02
2022-11-14T12:30:49.080Z,77.15
2022-11-14T12:31:48.915Z,80.29
2022-11-14T12:32:48.938Z,81.62
2022-11-14T12:33:48.923Z,78.32
2022-11-14T12:34:48.957Z,77.41
2022-11-14T12:35:49.036Z,80.43
2022-11-14T12:36:48.919Z,79.33
2022-11-14T12:37:54.279Z,80.15
2022-11-14T12:38:49.890Z,83.50
2022-11-14T12:39:48.889Z,73.17
2022-11-14T12:40:48.912Z,77.76
2022-11-14T12:41:48.910Z,73.04
2022-11-14T12:42:48.890Z,77.33
2022-11-14T12:43:48.949Z,77.52
2022-11-14T12:44:48.909Z,76.03
2022-11-14T12:45:48.860Z,77.53
2022-11-14T12:46:49.038Z,74.56
2022-11-14T12:47:48.878Z,81.57
2022-11-14T12:48:48.938Z,81.90
2022-11-14T12:49:48.869Z,80.07
2022-11-14T12:50:48.878Z,76.54
2022-11-14T12:51:48.835Z,76.70
2022-11-14T12:52:48.993Z,73.72
2022-11-14T12:53:48.857Z,87.41
2022-11-14T12:54:48.871Z,79.58